sensor_id;sensor_type;location;lat;lon;timestamp;temperature;humidity
8099;DHT22;4092;47.876;9.372;2023-05-19T00:00:01;9.30;99.90
8099;DHT22;4092;47.876;9.372;2023-05-19T00:02:29;9.30;99.90
8099;DHT22;4092;47.876;9.372;2023-05-19T00:04:58;9.20;99.90
8099;DHT22;4092;47.876;9.372;2023-05-19T00:07:30;9.20;99.90
8099;DHT22;4092;47.876;9.372;2023-05-19T00:09:58;9.20;99.90
8099;DHT22;4092;47.876;9.372;2023-05-19T00:12:25;9.20;99.90
8099;DHT22;4092;47.876;9.372;2023-05-19T00:14:54;9.10;99.90
8099;DHT22;4092;47.876;9.372;2023-05-19T00:17:22;9.10;99.90
8099;DHT22;4092;47.876;9.372;2023-05-19T00:19:49;9.00;99.90
8099;DHT22;4092;47.876;9.372;2023-05-19T00:22:17;9.00;99.90
8099;DHT22;4092;47.876;9.372;2023-05-19T00:24:45;9.00;99.90
8099;DHT22;4092;47.876;9.372;2023-05-19T00:27:15;9.00;99.90
8099;DHT22;4092;47.876;9.372;2023-05-19T00:29:42;9.00;99.90
8099;DHT22;4092;47.876;9.372;2023-05-19T00:32:09;9.00;99.90
8099;DHT22;4092;47.876;9.372;2023-05-19T00:34:36;9.00;99.90
8099;DHT22;4092;47.876;9.372;2023-05-19T00:37:03;8.90;99.90
8099;DHT22;4092;47.876;9.372;2023-05-19T00:39:30;8.90;99.90
8099;DHT22;4092;47.876;9.372;2023-05-19T00:42:07;8.80;99.90
8099;DHT22;4092;47.876;9.372;2023-05-19T00:44:39;8.80;99.90
8099;DHT22;4092;47.876;9.372;2023-05-19T00:47:06;8.80;99.90
8099;DHT22;4092;47.876;9.372;2023-05-19T00:49:34;8.80;99.90
8099;DHT22;4092;47.876;9.372;2023-05-19T00:52:02;8.80;99.90
8099;DHT22;4092;47.876;9.372;2023-05-19T00:54:31;8.70;99.90
8099;DHT22;4092;47.876;9.372;2023-05-19T00:56:59;8.60;99.90
8099;DHT22;4092;47.876;9.372;2023-05-19T00:59:28;8.70;99.90
8099;DHT22;4092;47.876;9.372;2023-05-19T01:01:57;8.70;99.90
8099;DHT22;4092;47.876;9.372;2023-05-19T01:04:24;8.70;99.90
8099;DHT22;4092;47.876;9.372;2023-05-19T01:06:52;8.70;99.90
8099;DHT22;4092;47.876;9.372;2023-05-19T01:09:20;8.70;99.90
8099;DHT22;4092;47.876;9.372;2023-05-19T01:11:47;8.60;99.90
8099;DHT22;4092;47.876;9.372;2023-05-19T01:14:15;8.60;99.90
8099;DHT22;4092;47.876;9.372;2023-05-19T01:16:49;8.60;99.90
8099;DHT22;4092;47.876;9.372;2023-05-19T01:19:35;8.70;99.90
8099;DHT22;4092;47.876;9.372;2023-05-19T01:22:17;8.60;99.90
8099;DHT22;4092;47.876;9.372;2023-05-19T01:28:30;8.50;99.90
8099;DHT22;4092;47.876;9.372;2023-05-19T01:31:03;8.50;99.90
8099;DHT22;4092;47.876;9.372;2023-05-19T01:33:32;8.50;99.90
8099;DHT22;4092;47.876;9.372;2023-05-19T01:36:03;8.50;99.90
8099;DHT22;4092;47.876;9.372;2023-05-19T01:38:32;8.50;99.90
8099;DHT22;4092;47.876;9.372;2023-05-19T01:41:01;8.40;99.90
8099;DHT22;4092;47.876;9.372;2023-05-19T01:43:28;8.40;99.90
8099;DHT22;4092;47.876;9.372;2023-05-19T01:45:56;8.40;99.90
8099;DHT22;4092;47.876;9.372;2023-05-19T01:48:27;8.40;99.90
8099;DHT22;4092;47.876;9.372;2023-05-19T01:50:54;8.40;99.90
8099;DHT22;4092;47.876;9.372;2023-05-19T01:53:22;8.40;99.90
8099;DHT22;4092;47.876;9.372;2023-05-19T01:55:52;8.30;99.90
8099;DHT22;4092;47.876;9.372;2023-05-19T01:58:29;8.30;99.90
8099;DHT22;4092;47.876;9.372;2023-05-19T02:01:06;8.30;99.90
8099;DHT22;4092;47.876;9.372;2023-05-19T02:03:45;8.20;99.90
8099;DHT22;4092;47.876;9.372;2023-05-19T02:06:31;8.20;99.90
8099;DHT22;4092;47.876;9.372;2023-05-19T02:09:03;8.20;99.90
8099;DHT22;4092;47.876;9.372;2023-05-19T02:11:36;8.20;99.90
8099;DHT22;4092;47.876;9.372;2023-05-19T02:14:08;8.20;99.90
8099;DHT22;4092;47.876;9.372;2023-05-19T02:16:42;8.10;99.90
8099;DHT22;4092;47.876;9.372;2023-05-19T02:19:21;8.10;99.90
8099;DHT22;4092;47.876;9.372;2023-05-19T02:21:51;8.10;99.90
8099;DHT22;4092;47.876;9.372;2023-05-19T02:24:18;8.10;99.90
8099;DHT22;4092;47.876;9.372;2023-05-19T02:26:47;8.00;99.90
8099;DHT22;4092;47.876;9.372;2023-05-19T02:29:14;8.00;99.90
8099;DHT22;4092;47.876;9.372;2023-05-19T02:31:43;8.10;99.90
8099;DHT22;4092;47.876;9.372;2023-05-19T02:34:10;8.00;99.90
8099;DHT22;4092;47.876;9.372;2023-05-19T02:36:40;8.10;99.90
8099;DHT22;4092;47.876;9.372;2023-05-19T02:39:10;8.00;99.90
8099;DHT22;4092;47.876;9.372;2023-05-19T02:41:38;8.00;99.90
8099;DHT22;4092;47.876;9.372;2023-05-19T02:44:05;8.00;99.90
8099;DHT22;4092;47.876;9.372;2023-05-19T02:46:32;7.90;99.90
8099;DHT22;4092;47.876;9.372;2023-05-19T02:49:00;7.90;99.90
8099;DHT22;4092;47.876;9.372;2023-05-19T02:51:27;7.90;99.90
8099;DHT22;4092;47.876;9.372;2023-05-19T02:53:58;7.90;99.90
8099;DHT22;4092;47.876;9.372;2023-05-19T02:56:26;7.90;99.90
8099;DHT22;4092;47.876;9.372;2023-05-19T02:58:54;7.80;99.90
8099;DHT22;4092;47.876;9.372;2023-05-19T03:01:21;7.80;99.90
8099;DHT22;4092;47.876;9.372;2023-05-19T03:03:48;7.80;99.90
8099;DHT22;4092;47.876;9.372;2023-05-19T03:06:16;7.80;99.90
8099;DHT22;4092;47.876;9.372;2023-05-19T03:08:43;7.80;99.90
8099;DHT22;4092;47.876;9.372;2023-05-19T03:11:12;7.70;99.90
8099;DHT22;4092;47.876;9.372;2023-05-19T03:13:40;7.70;99.90
8099;DHT22;4092;47.876;9.372;2023-05-19T03:16:07;7.70;99.90
8099;DHT22;4092;47.876;9.372;2023-05-19T03:18:34;7.70;99.90
8099;DHT22;4092;47.876;9.372;2023-05-19T03:21:03;7.70;99.90
8099;DHT22;4092;47.876;9.372;2023-05-19T03:23:30;7.80;99.90
8099;DHT22;4092;47.876;9.372;2023-05-19T03:25:59;7.80;99.90
8099;DHT22;4092;47.876;9.372;2023-05-19T03:28:35;7.70;99.90
8099;DHT22;4092;47.876;9.372;2023-05-19T03:31:03;7.80;99.90
8099;DHT22;4092;47.876;9.372;2023-05-19T03:33:30;7.80;99.90
8099;DHT22;4092;47.876;9.372;2023-05-19T03:35:58;7.80;99.90
8099;DHT22;4092;47.876;9.372;2023-05-19T03:38:25;7.80;99.90
8099;DHT22;4092;47.876;9.372;2023-05-19T03:40:52;7.70;99.90
8099;DHT22;4092;47.876;9.372;2023-05-19T03:43:19;7.70;99.90
8099;DHT22;4092;47.876;9.372;2023-05-19T03:45:50;7.70;99.90
8099;DHT22;4092;47.876;9.372;2023-05-19T03:48:18;7.70;99.90
8099;DHT22;4092;47.876;9.372;2023-05-19T03:50:45;7.70;99.90
8099;DHT22;4092;47.876;9.372;2023-05-19T03:53:13;7.80;99.90
8099;DHT22;4092;47.876;9.372;2023-05-19T03:55:43;7.80;99.90
8099;DHT22;4092;47.876;9.372;2023-05-19T03:58:13;7.70;99.90
8099;DHT22;4092;47.876;9.372;2023-05-19T04:00:40;7.70;99.90
8099;DHT22;4092;47.876;9.372;2023-05-19T04:03:09;7.80;99.90
8099;DHT22;4092;47.876;9.372;2023-05-19T04:05:36;7.60;99.90
8099;DHT22;4092;47.876;9.372;2023-05-19T04:08:04;7.50;99.90
8099;DHT22;4092;47.876;9.372;2023-05-19T04:10:31;7.40;99.90
8099;DHT22;4092;47.876;9.372;2023-05-19T04:12:58;7.40;99.90
8099;DHT22;4092;47.876;9.372;2023-05-19T04:15:25;7.40;99.90
8099;DHT22;4092;47.876;9.372;2023-05-19T04:17:52;7.40;99.90
8099;DHT22;4092;47.876;9.372;2023-05-19T04:20:21;7.30;99.90
8099;DHT22;4092;47.876;9.372;2023-05-19T04:22:48;7.30;99.90
8099;DHT22;4092;47.876;9.372;2023-05-19T04:25:16;7.30;99.90
8099;DHT22;4092;47.876;9.372;2023-05-19T04:27:44;7.40;99.90
8099;DHT22;4092;47.876;9.372;2023-05-19T04:30:15;7.40;99.90
8099;DHT22;4092;47.876;9.372;2023-05-19T04:32:46;7.40;99.90
8099;DHT22;4092;47.876;9.372;2023-05-19T04:35:14;7.40;99.90
8099;DHT22;4092;47.876;9.372;2023-05-19T04:37:44;7.40;99.90
8099;DHT22;4092;47.876;9.372;2023-05-19T04:40:12;7.40;99.90
8099;DHT22;4092;47.876;9.372;2023-05-19T04:42:39;7.40;99.90
8099;DHT22;4092;47.876;9.372;2023-05-19T04:45:08;7.40;99.90
8099;DHT22;4092;47.876;9.372;2023-05-19T04:47:36;7.40;99.90
8099;DHT22;4092;47.876;9.372;2023-05-19T04:50:05;7.40;99.90
8099;DHT22;4092;47.876;9.372;2023-05-19T04:52:35;7.50;99.90
8099;DHT22;4092;47.876;9.372;2023-05-19T04:55:05;7.50;99.90
8099;DHT22;4092;47.876;9.372;2023-05-19T04:57:33;7.50;99.90
8099;DHT22;4092;47.876;9.372;2023-05-19T05:00:00;7.60;99.90
8099;DHT22;4092;47.876;9.372;2023-05-19T05:02:27;7.50;99.90
8099;DHT22;4092;47.876;9.372;2023-05-19T05:04:57;7.60;99.90
8099;DHT22;4092;47.876;9.372;2023-05-19T05:07:25;7.60;99.90
8099;DHT22;4092;47.876;9.372;2023-05-19T05:09:52;7.60;99.90
8099;DHT22;4092;47.876;9.372;2023-05-19T05:12:21;7.60;99.90
8099;DHT22;4092;47.876;9.372;2023-05-19T05:14:49;7.70;99.90
8099;DHT22;4092;47.876;9.372;2023-05-19T05:17:18;7.70;99.90
8099;DHT22;4092;47.876;9.372;2023-05-19T05:19:46;7.70;99.90
8099;DHT22;4092;47.876;9.372;2023-05-19T05:22:17;7.70;99.90
8099;DHT22;4092;47.876;9.372;2023-05-19T05:24:45;7.80;99.90
8099;DHT22;4092;47.876;9.372;2023-05-19T05:27:13;7.80;99.90
8099;DHT22;4092;47.876;9.372;2023-05-19T05:29:44;7.80;99.90
8099;DHT22;4092;47.876;9.372;2023-05-19T05:32:11;7.90;99.90
8099;DHT22;4092;47.876;9.372;2023-05-19T05:34:38;7.90;99.90
8099;DHT22;4092;47.876;9.372;2023-05-19T05:37:06;7.90;99.90
8099;DHT22;4092;47.876;9.372;2023-05-19T05:39:33;7.90;99.90
8099;DHT22;4092;47.876;9.372;2023-05-19T05:42:01;7.90;99.90
8099;DHT22;4092;47.876;9.372;2023-05-19T05:44:29;7.90;99.90
8099;DHT22;4092;47.876;9.372;2023-05-19T05:46:58;8.00;99.90
8099;DHT22;4092;47.876;9.372;2023-05-19T05:49:27;8.00;99.90
8099;DHT22;4092;47.876;9.372;2023-05-19T05:51:55;8.00;99.90
8099;DHT22;4092;47.876;9.372;2023-05-19T05:54:24;7.90;99.90
8099;DHT22;4092;47.876;9.372;2023-05-19T05:56:52;7.90;99.90
8099;DHT22;4092;47.876;9.372;2023-05-19T05:59:19;8.00;99.90
8099;DHT22;4092;47.876;9.372;2023-05-19T06:01:48;8.00;99.90
8099;DHT22;4092;47.876;9.372;2023-05-19T06:04:17;8.10;99.90
8099;DHT22;4092;47.876;9.372;2023-05-19T06:06:45;8.20;99.90
8099;DHT22;4092;47.876;9.372;2023-05-19T06:09:17;8.20;99.90
8099;DHT22;4092;47.876;9.372;2023-05-19T06:11:44;8.20;99.90
8099;DHT22;4092;47.876;9.372;2023-05-19T06:14:12;8.20;99.90
8099;DHT22;4092;47.876;9.372;2023-05-19T06:16:39;8.20;99.90
8099;DHT22;4092;47.876;9.372;2023-05-19T06:19:06;8.20;99.90
8099;DHT22;4092;47.876;9.372;2023-05-19T06:21:35;8.20;99.90
8099;DHT22;4092;47.876;9.372;2023-05-19T06:24:02;8.20;99.90
8099;DHT22;4092;47.876;9.372;2023-05-19T06:26:30;8.30;99.90
8099;DHT22;4092;47.876;9.372;2023-05-19T06:28:57;8.30;99.90
8099;DHT22;4092;47.876;9.372;2023-05-19T06:31:24;8.40;99.90
8099;DHT22;4092;47.876;9.372;2023-05-19T06:33:51;8.40;99.90
8099;DHT22;4092;47.876;9.372;2023-05-19T06:36:18;8.40;99.90
8099;DHT22;4092;47.876;9.372;2023-05-19T06:38:48;8.40;99.90
8099;DHT22;4092;47.876;9.372;2023-05-19T06:41:15;8.50;99.90
8099;DHT22;4092;47.876;9.372;2023-05-19T06:43:48;8.50;99.90
8099;DHT22;4092;47.876;9.372;2023-05-19T06:46:15;8.50;99.90
8099;DHT22;4092;47.876;9.372;2023-05-19T06:48:42;8.60;99.90
8099;DHT22;4092;47.876;9.372;2023-05-19T06:51:10;8.70;99.90
8099;DHT22;4092;47.876;9.372;2023-05-19T06:53:37;8.70;99.90
8099;DHT22;4092;47.876;9.372;2023-05-19T06:56:08;8.70;99.90
8099;DHT22;4092;47.876;9.372;2023-05-19T06:58:35;8.70;99.90
8099;DHT22;4092;47.876;9.372;2023-05-19T07:01:04;8.80;99.90
8099;DHT22;4092;47.876;9.372;2023-05-19T07:03:31;8.80;99.90
8099;DHT22;4092;47.876;9.372;2023-05-19T07:05:59;8.90;99.90
8099;DHT22;4092;47.876;9.372;2023-05-19T07:08:27;8.90;99.90
8099;DHT22;4092;47.876;9.372;2023-05-19T07:10:54;8.90;99.90
8099;DHT22;4092;47.876;9.372;2023-05-19T07:13:23;8.90;99.90
8099;DHT22;4092;47.876;9.372;2023-05-19T07:15:50;8.90;99.90
8099;DHT22;4092;47.876;9.372;2023-05-19T07:18:20;8.90;99.90
8099;DHT22;4092;47.876;9.372;2023-05-19T07:20:47;9.00;99.90
8099;DHT22;4092;47.876;9.372;2023-05-19T07:23:16;9.00;99.90
8099;DHT22;4092;47.876;9.372;2023-05-19T07:25:46;9.10;99.90
8099;DHT22;4092;47.876;9.372;2023-05-19T07:28:13;9.10;99.90
8099;DHT22;4092;47.876;9.372;2023-05-19T07:30:42;9.10;99.90
8099;DHT22;4092;47.876;9.372;2023-05-19T07:33:09;9.10;99.90
8099;DHT22;4092;47.876;9.372;2023-05-19T07:35:36;9.10;99.90
8099;DHT22;4092;47.876;9.372;2023-05-19T07:38:03;9.20;99.90
8099;DHT22;4092;47.876;9.372;2023-05-19T07:40:31;9.20;99.90
8099;DHT22;4092;47.876;9.372;2023-05-19T07:42:58;9.20;99.90
8099;DHT22;4092;47.876;9.372;2023-05-19T07:45:26;9.20;99.90
8099;DHT22;4092;47.876;9.372;2023-05-19T07:47:56;9.40;99.90
8099;DHT22;4092;47.876;9.372;2023-05-19T07:50:22;9.50;99.90
8099;DHT22;4092;47.876;9.372;2023-05-19T07:52:50;9.50;99.90
8099;DHT22;4092;47.876;9.372;2023-05-19T07:55:17;9.60;99.90
8099;DHT22;4092;47.876;9.372;2023-05-19T07:57:48;9.70;99.90
8099;DHT22;4092;47.876;9.372;2023-05-19T08:00:16;9.80;99.90
8099;DHT22;4092;47.876;9.372;2023-05-19T08:02:46;9.90;99.90
8099;DHT22;4092;47.876;9.372;2023-05-19T08:05:18;9.90;99.90
8099;DHT22;4092;47.876;9.372;2023-05-19T08:07:45;10.00;99.90
8099;DHT22;4092;47.876;9.372;2023-05-19T08:10:12;10.10;99.90
8099;DHT22;4092;47.876;9.372;2023-05-19T08:12:40;10.20;99.90
8099;DHT22;4092;47.876;9.372;2023-05-19T08:15:07;10.20;99.90
8099;DHT22;4092;47.876;9.372;2023-05-19T08:17:36;10.40;99.90
8099;DHT22;4092;47.876;9.372;2023-05-19T08:20:04;10.50;99.90
8099;DHT22;4092;47.876;9.372;2023-05-19T08:22:34;10.70;99.90
8099;DHT22;4092;47.876;9.372;2023-05-19T08:25:01;10.90;99.90
8099;DHT22;4092;47.876;9.372;2023-05-19T08:27:30;11.00;99.90
8099;DHT22;4092;47.876;9.372;2023-05-19T08:29:57;11.20;99.90
8099;DHT22;4092;47.876;9.372;2023-05-19T08:32:26;11.30;99.90
8099;DHT22;4092;47.876;9.372;2023-05-19T08:34:53;11.40;99.90
8099;DHT22;4092;47.876;9.372;2023-05-19T08:37:20;11.50;99.90
8099;DHT22;4092;47.876;9.372;2023-05-19T08:39:49;11.50;99.90
8099;DHT22;4092;47.876;9.372;2023-05-19T08:42:16;11.50;99.90
8099;DHT22;4092;47.876;9.372;2023-05-19T08:44:43;11.50;99.90
8099;DHT22;4092;47.876;9.372;2023-05-19T08:47:11;11.50;99.90
8099;DHT22;4092;47.876;9.372;2023-05-19T08:49:43;11.50;99.90
8099;DHT22;4092;47.876;9.372;2023-05-19T08:52:18;11.40;99.90
8099;DHT22;4092;47.876;9.372;2023-05-19T08:54:53;11.50;99.90
8099;DHT22;4092;47.876;9.372;2023-05-19T08:57:22;11.80;99.90
8099;DHT22;4092;47.876;9.372;2023-05-19T08:59:51;11.80;99.90
8099;DHT22;4092;47.876;9.372;2023-05-19T09:02:21;11.80;99.90
8099;DHT22;4092;47.876;9.372;2023-05-19T09:04:48;11.80;99.90
8099;DHT22;4092;47.876;9.372;2023-05-19T09:07:17;11.70;99.90
8099;DHT22;4092;47.876;9.372;2023-05-19T09:09:44;11.90;99.90
8099;DHT22;4092;47.876;9.372;2023-05-19T09:12:14;12.10;99.90
8099;DHT22;4092;47.876;9.372;2023-05-19T09:14:41;12.30;99.90
8099;DHT22;4092;47.876;9.372;2023-05-19T09:17:08;12.50;99.90
8099;DHT22;4092;47.876;9.372;2023-05-19T09:19:41;12.60;99.90
8099;DHT22;4092;47.876;9.372;2023-05-19T09:22:09;12.80;99.90
8099;DHT22;4092;47.876;9.372;2023-05-19T09:24:36;13.10;99.90
8099;DHT22;4092;47.876;9.372;2023-05-19T09:27:05;13.20;99.90
8099;DHT22;4092;47.876;9.372;2023-05-19T09:29:33;13.10;99.90
8099;DHT22;4092;47.876;9.372;2023-05-19T09:32:02;13.00;99.90
8099;DHT22;4092;47.876;9.372;2023-05-19T09:34:30;13.00;99.90
8099;DHT22;4092;47.876;9.372;2023-05-19T09:36:57;13.20;99.90
8099;DHT22;4092;47.876;9.372;2023-05-19T09:39:25;13.20;99.90
8099;DHT22;4092;47.876;9.372;2023-05-19T09:41:54;13.40;99.90
8099;DHT22;4092;47.876;9.372;2023-05-19T09:44:24;13.50;99.90
8099;DHT22;4092;47.876;9.372;2023-05-19T09:46:57;13.60;99.90
8099;DHT22;4092;47.876;9.372;2023-05-19T09:49:28;13.60;99.90
8099;DHT22;4092;47.876;9.372;2023-05-19T09:51:58;13.80;99.90
8099;DHT22;4092;47.876;9.372;2023-05-19T09:54:27;14.00;99.90
8099;DHT22;4092;47.876;9.372;2023-05-19T09:56:57;14.50;99.90
8099;DHT22;4092;47.876;9.372;2023-05-19T09:59:25;14.80;99.90
8099;DHT22;4092;47.876;9.372;2023-05-19T10:01:56;14.90;99.90
8099;DHT22;4092;47.876;9.372;2023-05-19T10:04:25;14.80;99.90
8099;DHT22;4092;47.876;9.372;2023-05-19T10:06:56;14.50;99.90
8099;DHT22;4092;47.876;9.372;2023-05-19T10:09:26;14.10;99.90
8099;DHT22;4092;47.876;9.372;2023-05-19T10:11:54;13.80;99.90
8099;DHT22;4092;47.876;9.372;2023-05-19T10:14:24;13.90;99.90
8099;DHT22;4092;47.876;9.372;2023-05-19T10:16:52;13.80;99.90
8099;DHT22;4092;47.876;9.372;2023-05-19T10:19:26;13.70;99.90
8099;DHT22;4092;47.876;9.372;2023-05-19T10:21:55;13.60;99.90
8099;DHT22;4092;47.876;9.372;2023-05-19T10:24:23;13.60;99.90
8099;DHT22;4092;47.876;9.372;2023-05-19T10:26:54;13.70;99.90
8099;DHT22;4092;47.876;9.372;2023-05-19T10:29:27;13.80;99.90
8099;DHT22;4092;47.876;9.372;2023-05-19T10:31:55;13.80;99.90
8099;DHT22;4092;47.876;9.372;2023-05-19T10:37:36;14.10;99.90
8099;DHT22;4092;47.876;9.372;2023-05-19T10:40:11;14.60;99.90
8099;DHT22;4092;47.876;9.372;2023-05-19T10:42:48;15.20;99.90
8099;DHT22;4092;47.876;9.372;2023-05-19T10:45:21;15.20;99.90
8099;DHT22;4092;47.876;9.372;2023-05-19T10:47:51;15.10;99.90
8099;DHT22;4092;47.876;9.372;2023-05-19T10:50:19;14.80;99.90
8099;DHT22;4092;47.876;9.372;2023-05-19T10:52:54;14.50;99.90
8099;DHT22;4092;47.876;9.372;2023-05-19T10:55:43;14.40;99.90
8099;DHT22;4092;47.876;9.372;2023-05-19T10:58:11;14.20;99.90
8099;DHT22;4092;47.876;9.372;2023-05-19T11:00:38;14.10;99.90
8099;DHT22;4092;47.876;9.372;2023-05-19T11:03:12;14.40;99.90
8099;DHT22;4092;47.876;9.372;2023-05-19T11:05:40;14.60;99.90
8099;DHT22;4092;47.876;9.372;2023-05-19T11:08:12;14.50;99.90
8099;DHT22;4092;47.876;9.372;2023-05-19T11:10:42;14.70;99.90
8099;DHT22;4092;47.876;9.372;2023-05-19T11:13:18;14.70;99.90
8099;DHT22;4092;47.876;9.372;2023-05-19T11:15:47;14.60;99.90
8099;DHT22;4092;47.876;9.372;2023-05-19T11:18:14;14.30;99.90
8099;DHT22;4092;47.876;9.372;2023-05-19T11:20:42;14.10;99.90
8099;DHT22;4092;47.876;9.372;2023-05-19T11:23:13;14.00;99.90
8099;DHT22;4092;47.876;9.372;2023-05-19T11:25:43;13.80;99.90
8099;DHT22;4092;47.876;9.372;2023-05-19T11:28:12;13.60;99.90
8099;DHT22;4092;47.876;9.372;2023-05-19T11:30:42;13.40;99.90
8099;DHT22;4092;47.876;9.372;2023-05-19T11:33:10;13.30;99.90
8099;DHT22;4092;47.876;9.372;2023-05-19T11:35:38;13.20;99.90
8099;DHT22;4092;47.876;9.372;2023-05-19T11:38:06;13.00;99.90
8099;DHT22;4092;47.876;9.372;2023-05-19T11:40:35;12.90;99.90
8099;DHT22;4092;47.876;9.372;2023-05-19T11:43:02;12.90;99.90
8099;DHT22;4092;47.876;9.372;2023-05-19T11:45:31;12.80;99.90
8099;DHT22;4092;47.876;9.372;2023-05-19T11:47:59;12.90;99.90
8099;DHT22;4092;47.876;9.372;2023-05-19T11:50:27;13.00;99.90
8099;DHT22;4092;47.876;9.372;2023-05-19T11:52:54;13.00;99.90
8099;DHT22;4092;47.876;9.372;2023-05-19T11:55:23;13.10;99.90
8099;DHT22;4092;47.876;9.372;2023-05-19T11:57:58;13.10;99.90
8099;DHT22;4092;47.876;9.372;2023-05-19T12:00:25;13.20;99.90
8099;DHT22;4092;47.876;9.372;2023-05-19T12:02:52;13.50;99.90
8099;DHT22;4092;47.876;9.372;2023-05-19T12:05:20;13.70;99.90
8099;DHT22;4092;47.876;9.372;2023-05-19T12:07:48;13.70;99.90
8099;DHT22;4092;47.876;9.372;2023-05-19T12:10:16;13.60;99.90
8099;DHT22;4092;47.876;9.372;2023-05-19T12:12:48;13.40;99.90
8099;DHT22;4092;47.876;9.372;2023-05-19T12:15:19;13.20;99.90
8099;DHT22;4092;47.876;9.372;2023-05-19T12:17:48;13.10;99.90
8099;DHT22;4092;47.876;9.372;2023-05-19T12:20:16;13.00;99.90
8099;DHT22;4092;47.876;9.372;2023-05-19T12:22:43;12.90;99.90
8099;DHT22;4092;47.876;9.372;2023-05-19T12:25:11;12.90;99.90
8099;DHT22;4092;47.876;9.372;2023-05-19T12:27:38;12.80;99.90
8099;DHT22;4092;47.876;9.372;2023-05-19T12:30:09;12.80;99.90
8099;DHT22;4092;47.876;9.372;2023-05-19T12:32:38;12.70;99.90
8099;DHT22;4092;47.876;9.372;2023-05-19T12:35:05;12.70;99.90
8099;DHT22;4092;47.876;9.372;2023-05-19T12:37:33;12.60;99.90
8099;DHT22;4092;47.876;9.372;2023-05-19T12:40:01;12.50;99.90
8099;DHT22;4092;47.876;9.372;2023-05-19T12:42:30;12.40;99.90
8099;DHT22;4092;47.876;9.372;2023-05-19T12:45:01;12.40;99.90
8099;DHT22;4092;47.876;9.372;2023-05-19T12:47:32;12.50;99.90
8099;DHT22;4092;47.876;9.372;2023-05-19T12:50:03;12.50;99.90
8099;DHT22;4092;47.876;9.372;2023-05-19T12:52:32;12.50;99.90
8099;DHT22;4092;47.876;9.372;2023-05-19T12:55:01;12.60;99.90
8099;DHT22;4092;47.876;9.372;2023-05-19T12:57:33;12.70;99.90
8099;DHT22;4092;47.876;9.372;2023-05-19T13:00:02;12.70;99.90
8099;DHT22;4092;47.876;9.372;2023-05-19T13:02:33;12.70;99.90
8099;DHT22;4092;47.876;9.372;2023-05-19T13:05:07;12.70;99.90
8099;DHT22;4092;47.876;9.372;2023-05-19T13:07:35;12.50;99.90
8099;DHT22;4092;47.876;9.372;2023-05-19T13:10:02;12.50;99.90
8099;DHT22;4092;47.876;9.372;2023-05-19T13:12:29;12.50;99.90
8099;DHT22;4092;47.876;9.372;2023-05-19T13:14:56;12.60;99.90
8099;DHT22;4092;47.876;9.372;2023-05-19T13:17:25;12.70;99.90
8099;DHT22;4092;47.876;9.372;2023-05-19T13:19:54;12.80;99.90
8099;DHT22;4092;47.876;9.372;2023-05-19T13:22:23;12.80;99.90
8099;DHT22;4092;47.876;9.372;2023-05-19T13:24:52;13.00;99.90
8099;DHT22;4092;47.876;9.372;2023-05-19T13:27:23;13.00;99.90
8099;DHT22;4092;47.876;9.372;2023-05-19T13:29:52;13.10;99.90
8099;DHT22;4092;47.876;9.372;2023-05-19T13:32:23;13.00;99.90
8099;DHT22;4092;47.876;9.372;2023-05-19T13:34:50;13.00;99.90
8099;DHT22;4092;47.876;9.372;2023-05-19T13:37:18;12.90;99.90
8099;DHT22;4092;47.876;9.372;2023-05-19T13:39:46;12.90;99.90
8099;DHT22;4092;47.876;9.372;2023-05-19T13:42:14;12.80;99.90
8099;DHT22;4092;47.876;9.372;2023-05-19T13:44:42;12.80;99.90
8099;DHT22;4092;47.876;9.372;2023-05-19T13:47:09;12.70;99.90
8099;DHT22;4092;47.876;9.372;2023-05-19T13:49:38;12.70;99.90
8099;DHT22;4092;47.876;9.372;2023-05-19T13:52:06;12.70;99.90
8099;DHT22;4092;47.876;9.372;2023-05-19T13:54:33;12.70;99.90
8099;DHT22;4092;47.876;9.372;2023-05-19T13:57:02;12.80;99.90
8099;DHT22;4092;47.876;9.372;2023-05-19T13:59:35;12.80;99.90
8099;DHT22;4092;47.876;9.372;2023-05-19T14:02:02;12.80;99.90
8099;DHT22;4092;47.876;9.372;2023-05-19T14:04:30;12.80;99.90
8099;DHT22;4092;47.876;9.372;2023-05-19T14:06:57;12.80;99.90
8099;DHT22;4092;47.876;9.372;2023-05-19T14:09:24;12.80;99.90
8099;DHT22;4092;47.876;9.372;2023-05-19T14:11:51;12.90;99.90
8099;DHT22;4092;47.876;9.372;2023-05-19T14:14:20;12.80;99.90
8099;DHT22;4092;47.876;9.372;2023-05-19T14:16:47;12.70;99.90
8099;DHT22;4092;47.876;9.372;2023-05-19T14:19:15;12.80;99.90
8099;DHT22;4092;47.876;9.372;2023-05-19T14:21:43;12.80;99.90
8099;DHT22;4092;47.876;9.372;2023-05-19T14:24:10;12.90;99.90
8099;DHT22;4092;47.876;9.372;2023-05-19T14:26:37;13.00;99.90
8099;DHT22;4092;47.876;9.372;2023-05-19T14:29:09;13.10;99.90
8099;DHT22;4092;47.876;9.372;2023-05-19T14:31:37;13.10;99.90
8099;DHT22;4092;47.876;9.372;2023-05-19T14:34:05;13.20;99.90
8099;DHT22;4092;47.876;9.372;2023-05-19T14:36:32;13.20;99.90
8099;DHT22;4092;47.876;9.372;2023-05-19T14:39:00;13.10;99.90
8099;DHT22;4092;47.876;9.372;2023-05-19T14:41:27;13.10;99.90
8099;DHT22;4092;47.876;9.372;2023-05-19T14:43:55;13.00;99.90
8099;DHT22;4092;47.876;9.372;2023-05-19T14:46:21;13.10;99.90
8099;DHT22;4092;47.876;9.372;2023-05-19T14:48:50;12.90;99.90
8099;DHT22;4092;47.876;9.372;2023-05-19T14:51:17;12.80;99.90
8099;DHT22;4092;47.876;9.372;2023-05-19T14:53:47;12.80;99.90
8099;DHT22;4092;47.876;9.372;2023-05-19T14:56:14;12.70;99.90
8099;DHT22;4092;47.876;9.372;2023-05-19T14:58:41;12.60;99.90
8099;DHT22;4092;47.876;9.372;2023-05-19T15:01:08;12.60;99.90
8099;DHT22;4092;47.876;9.372;2023-05-19T15:03:35;12.50;99.90
8099;DHT22;4092;47.876;9.372;2023-05-19T15:06:07;12.30;99.90
8099;DHT22;4092;47.876;9.372;2023-05-19T15:08:34;12.30;99.90
8099;DHT22;4092;47.876;9.372;2023-05-19T15:11:02;12.30;99.90
8099;DHT22;4092;47.876;9.372;2023-05-19T15:13:29;12.30;99.90
8099;DHT22;4092;47.876;9.372;2023-05-19T15:15:59;12.40;99.90
8099;DHT22;4092;47.876;9.372;2023-05-19T15:18:26;12.30;99.90
8099;DHT22;4092;47.876;9.372;2023-05-19T15:20:52;12.30;99.90
8099;DHT22;4092;47.876;9.372;2023-05-19T15:23:21;12.30;99.90
8099;DHT22;4092;47.876;9.372;2023-05-19T15:25:48;12.30;99.90
8099;DHT22;4092;47.876;9.372;2023-05-19T15:28:15;12.30;99.90
8099;DHT22;4092;47.876;9.372;2023-05-19T15:30:42;12.30;99.90
8099;DHT22;4092;47.876;9.372;2023-05-19T15:33:09;12.30;99.90
8099;DHT22;4092;47.876;9.372;2023-05-19T15:35:37;12.30;99.90
8099;DHT22;4092;47.876;9.372;2023-05-19T15:38:04;12.20;99.90
8099;DHT22;4092;47.876;9.372;2023-05-19T15:40:33;12.10;99.90
8099;DHT22;4092;47.876;9.372;2023-05-19T15:43:00;12.10;99.90
8099;DHT22;4092;47.876;9.372;2023-05-19T15:45:27;12.10;99.90
8099;DHT22;4092;47.876;9.372;2023-05-19T15:47:54;12.00;99.90
8099;DHT22;4092;47.876;9.372;2023-05-19T15:50:21;12.00;99.90
8099;DHT22;4092;47.876;9.372;2023-05-19T15:52:50;12.00;99.90
8099;DHT22;4092;47.876;9.372;2023-05-19T15:55:18;12.10;99.90
8099;DHT22;4092;47.876;9.372;2023-05-19T15:57:46;12.10;99.90
8099;DHT22;4092;47.876;9.372;2023-05-19T16:00:14;12.10;99.90
8099;DHT22;4092;47.876;9.372;2023-05-19T16:02:42;12.00;99.90
8099;DHT22;4092;47.876;9.372;2023-05-19T16:05:08;12.00;99.90
8099;DHT22;4092;47.876;9.372;2023-05-19T16:07:36;11.90;99.90
8099;DHT22;4092;47.876;9.372;2023-05-19T16:10:03;12.00;99.90
8099;DHT22;4092;47.876;9.372;2023-05-19T16:12:31;11.90;99.90
8099;DHT22;4092;47.876;9.372;2023-05-19T16:14:59;11.90;99.90
8099;DHT22;4092;47.876;9.372;2023-05-19T16:17:26;11.90;99.90
8099;DHT22;4092;47.876;9.372;2023-05-19T16:19:53;11.90;99.90
8099;DHT22;4092;47.876;9.372;2023-05-19T16:22:20;11.90;99.90
8099;DHT22;4092;47.876;9.372;2023-05-19T16:24:50;11.90;99.90